EFKE/KEM METAR and TAF weather

Enter ICAO airport designator
Station Type Date Time Source
EFKE METAR 2019/10/21 05:50 UTC NOAA

EFKE 210550Z AUTO VRB02KT 9999 BKN019 M07/M07 Q1013


Station Type Date Time Source
EFKE Decoded METAR 2019/10/21 05:50 UTC NOAA

Kemi, Finland (EFKE) 65-47N 024-35E
Oct 21, 2019 - 01:50 AM EDT / 2019.10.21 0550 UTC
Wind: Variable at 2 MPH (2 KT):0
Visibility: greater than 7 mile(s):0
Sky conditions: mostly cloudy
Temperature: 19 F (-7 C)
Dew Point: 19 F (-7 C)
Relative Humidity: 100%
Pressure (altimeter): 29.91 in. Hg (1013 hPa)
ob: EFKE 210550Z AUTO VRB02KT 9999 BKN019 M07/M07 Q1013
cycle: 6

Station Type Date Time Source
EFKE TAF 2015/01/12 15:42 UTC NOAA

TAF EFKE 121433Z 1215/1312 03006KT CAVOK
BECMG 1300/1302 9999 BKN015
FM130400 07008KT 9999 SCT014 BKN018
TEMPO 1304/1312 7000 -SN

Example: see airport list